sensor_id;sensor_type;location;lat;lon;timestamp;pressure;altitude;pressure_sealevel;temperature;humidity
41513;BME280;27244;59.940;30.280;2022-07-25T00:00:43;100857.59;;;25.62;51.01
41513;BME280;27244;59.940;30.280;2022-07-25T00:03:10;100857.47;;;25.65;51.27
41513;BME280;27244;59.940;30.280;2022-07-25T00:05:37;100858.38;;;25.62;51.16
41513;BME280;27244;59.940;30.280;2022-07-25T00:08:05;100855.56;;;25.62;51.08
41513;BME280;27244;59.940;30.280;2022-07-25T00:10:32;100851.94;;;25.62;50.94
41513;BME280;27244;59.940;30.280;2022-07-25T00:12:59;100849.91;;;25.62;50.97
41513;BME280;27244;59.940;30.280;2022-07-25T00:15:27;100850.69;;;25.63;51.34
41513;BME280;27244;59.940;30.280;2022-07-25T00:17:54;100854.31;;;25.63;51.28
41513;BME280;27244;59.940;30.280;2022-07-25T00:20:22;100850.69;;;25.63;51.20
41513;BME280;27244;59.940;30.280;2022-07-25T00:22:49;100845.50;;;25.61;51.45
41513;BME280;27244;59.940;30.280;2022-07-25T00:25:17;100843.34;;;25.65;50.89
41513;BME280;27244;59.940;30.280;2022-07-25T00:27:44;100845.03;;;25.63;51.08
41513;BME280;27244;59.940;30.280;2022-07-25T00:30:12;100843.13;;;25.60;51.36
41513;BME280;27244;59.940;30.280;2022-07-25T00:32:39;100854.75;;;25.62;51.28
41513;BME280;27244;59.940;30.280;2022-07-25T00:35:07;100851.50;;;25.63;51.21
41513;BME280;27244;59.940;30.280;2022-07-25T00:37:34;100841.09;;;25.60;51.35
41513;BME280;27244;59.940;30.280;2022-07-25T00:40:01;100838.28;;;25.60;51.43
41513;BME280;27244;59.940;30.280;2022-07-25T00:42:29;100834.66;;;25.60;51.93
41513;BME280;27244;59.940;30.280;2022-07-25T00:44:56;100832.28;;;25.58;51.35
41513;BME280;27244;59.940;30.280;2022-07-25T00:47:24;100829.94;;;25.57;51.94
41513;BME280;27244;59.940;30.280;2022-07-25T00:49:51;100820.31;;;25.54;51.70
41513;BME280;27244;59.940;30.280;2022-07-25T00:52:18;100833.53;;;25.57;51.39
41513;BME280;27244;59.940;30.280;2022-07-25T00:54:46;100827.53;;;25.55;51.34
41513;BME280;27244;59.940;30.280;2022-07-25T00:57:13;100826.75;;;25.55;51.53
41513;BME280;27244;59.940;30.280;2022-07-25T00:59:41;100823.13;;;25.54;51.41
41513;BME280;27244;59.940;30.280;2022-07-25T01:02:08;100825.63;;;25.52;51.54
41513;BME280;27244;59.940;30.280;2022-07-25T01:04:35;100817.25;;;25.48;51.75
41513;BME280;27244;59.940;30.280;2022-07-25T01:07:02;100817.16;;;25.52;51.79
41513;BME280;27244;59.940;30.280;2022-07-25T01:09:29;100820.41;;;25.51;51.61
41513;BME280;27244;59.940;30.280;2022-07-25T01:11:56;100822.47;;;25.50;51.55
41513;BME280;27244;59.940;30.280;2022-07-25T01:14:24;100830.13;;;25.50;51.72
41513;BME280;27244;59.940;30.280;2022-07-25T01:16:52;100818.41;;;25.51;51.45
41513;BME280;27244;59.940;30.280;2022-07-25T01:19:19;100813.63;;;25.48;51.89
41513;BME280;27244;59.940;30.280;2022-07-25T01:21:47;100820.88;;;25.49;51.51
41513;BME280;27244;59.940;30.280;2022-07-25T01:24:14;100814.88;;;25.47;51.64
41513;BME280;27244;59.940;30.280;2022-07-25T01:26:41;100820.53;;;25.47;51.57
41513;BME280;27244;59.940;30.280;2022-07-25T01:29:08;100826.97;;;25.47;51.44
41513;BME280;27244;59.940;30.280;2022-07-25T01:31:35;100825.41;;;25.46;51.82
41513;BME280;27244;59.940;30.280;2022-07-25T01:34:02;100827.44;;;25.46;51.36
41513;BME280;27244;59.940;30.280;2022-07-25T01:36:29;100830.25;;;25.46;51.62
41513;BME280;27244;59.940;30.280;2022-07-25T01:38:58;100836.34;;;25.44;51.79
41513;BME280;27244;59.940;30.280;2022-07-25T01:41:25;100832.72;;;25.44;51.51
41513;BME280;27244;59.940;30.280;2022-07-25T01:43:52;100839.97;;;25.45;51.62
41513;BME280;27244;59.940;30.280;2022-07-25T01:46:19;100841.22;;;25.44;51.57
41513;BME280;27244;59.940;30.280;2022-07-25T01:48:46;100839.66;;;25.43;51.85
41513;BME280;27244;59.940;30.280;2022-07-25T01:51:13;100849.69;;;25.44;51.78
41513;BME280;27244;59.940;30.280;2022-07-25T01:53:40;100846.84;;;25.44;51.85
41513;BME280;27244;59.940;30.280;2022-07-25T01:56:09;100838.38;;;25.44;51.73
41513;BME280;27244;59.940;30.280;2022-07-25T01:58:36;100836.03;;;25.42;51.36
41513;BME280;27244;59.940;30.280;2022-07-25T02:01:03;100840.41;;;25.43;51.84
41513;BME280;27244;59.940;30.280;2022-07-25T02:03:30;100852.19;;;25.42;51.58
41513;BME280;27244;59.940;30.280;2022-07-25T02:05:58;100852.97;;;25.42;51.40
41513;BME280;27244;59.940;30.280;2022-07-25T02:08:26;100849.69;;;25.44;51.47
41513;BME280;27244;59.940;30.280;2022-07-25T02:10:54;100847.31;;;25.42;51.68
41513;BME280;27244;59.940;30.280;2022-07-25T02:13:23;100854.09;;;25.45;51.69
41513;BME280;27244;59.940;30.280;2022-07-25T02:15:50;100844.94;;;25.41;51.59
41513;BME280;27244;59.940;30.280;2022-07-25T02:18:17;100847.31;;;25.42;51.53
41513;BME280;27244;59.940;30.280;2022-07-25T02:20:44;100847.31;;;25.42;51.42
41513;BME280;27244;59.940;30.280;2022-07-25T02:23:11;100847.31;;;25.42;51.35
41513;BME280;27244;59.940;30.280;2022-07-25T02:25:38;100840.09;;;25.41;51.53
41513;BME280;27244;59.940;30.280;2022-07-25T02:28:06;100846.53;;;25.42;51.66
41513;BME280;27244;59.940;30.280;2022-07-25T02:30:34;100850.16;;;25.42;51.73
41513;BME280;27244;59.940;30.280;2022-07-25T02:33:01;100850.16;;;25.42;51.59
41513;BME280;27244;59.940;30.280;2022-07-25T02:35:28;100857.47;;;25.40;51.41
41513;BME280;27244;59.940;30.280;2022-07-25T02:37:55;100851.81;;;25.40;51.75
41513;BME280;27244;59.940;30.280;2022-07-25T02:40:22;100850.59;;;25.41;51.97
41513;BME280;27244;59.940;30.280;2022-07-25T02:42:49;100852.19;;;25.42;52.06
41513;BME280;27244;59.940;30.280;2022-07-25T02:45:16;100856.25;;;25.41;51.58
41513;BME280;27244;59.940;30.280;2022-07-25T02:47:45;100847.31;;;25.42;51.75
41513;BME280;27244;59.940;30.280;2022-07-25T02:50:12;100855.00;;;25.42;51.55
41513;BME280;27244;59.940;30.280;2022-07-25T02:52:39;100855.00;;;25.42;51.77
41513;BME280;27244;59.940;30.280;2022-07-25T02:55:06;100854.66;;;25.40;51.60
41513;BME280;27244;59.940;30.280;2022-07-25T02:57:34;100852.19;;;25.42;51.75
41513;BME280;27244;59.940;30.280;2022-07-25T03:00:01;100850.59;;;25.41;51.68
41513;BME280;27244;59.940;30.280;2022-07-25T03:02:28;100854.66;;;25.40;51.42
41513;BME280;27244;59.940;30.280;2022-07-25T03:04:56;100853.09;;;25.39;51.50
41513;BME280;27244;59.940;30.280;2022-07-25T03:07:23;100858.28;;;25.40;51.75
41513;BME280;27244;59.940;30.280;2022-07-25T03:09:50;100859.50;;;25.39;51.59
41513;BME280;27244;59.940;30.280;2022-07-25T03:12:17;100858.38;;;25.37;51.70
41513;BME280;27244;59.940;30.280;2022-07-25T03:14:44;100858.75;;;25.39;51.38
41513;BME280;27244;59.940;30.280;2022-07-25T03:17:11;100859.50;;;25.39;51.55
41513;BME280;27244;59.940;30.280;2022-07-25T03:19:38;100857.16;;;25.38;51.73
41513;BME280;27244;59.940;30.280;2022-07-25T03:22:06;100863.91;;;25.40;51.29
41513;BME280;27244;59.940;30.280;2022-07-25T03:24:33;100870.03;;;25.39;51.61
41513;BME280;27244;59.940;30.280;2022-07-25T03:27:00;100859.97;;;25.38;51.75
41513;BME280;27244;59.940;30.280;2022-07-25T03:29:27;100865.63;;;25.38;51.35
41513;BME280;27244;59.940;30.280;2022-07-25T03:31:54;100872.50;;;25.37;51.31
41513;BME280;27244;59.940;30.280;2022-07-25T03:34:21;100871.28;;;25.38;51.68
41513;BME280;27244;59.940;30.280;2022-07-25T03:36:48;100871.28;;;25.38;51.76
41513;BME280;27244;59.940;30.280;2022-07-25T03:39:17;100871.59;;;25.40;51.46
41513;BME280;27244;59.940;30.280;2022-07-25T03:41:45;100866.84;;;25.37;51.74
41513;BME280;27244;59.940;30.280;2022-07-25T03:44:12;100878.94;;;25.37;51.63
41513;BME280;27244;59.940;30.280;2022-07-25T03:46:39;100873.75;;;25.36;51.27
41513;BME280;27244;59.940;30.280;2022-07-25T03:49:06;100866.41;;;25.38;51.43
41513;BME280;27244;59.940;30.280;2022-07-25T03:51:33;100869.69;;;25.37;51.54
41513;BME280;27244;59.940;30.280;2022-07-25T03:54:00;100871.72;;;25.36;51.49
41513;BME280;27244;59.940;30.280;2022-07-25T03:56:29;100872.06;;;25.38;51.64
41513;BME280;27244;59.940;30.280;2022-07-25T03:58:56;100880.97;;;25.37;51.67
41513;BME280;27244;59.940;30.280;2022-07-25T04:01:23;100880.19;;;25.36;51.48
41513;BME280;27244;59.940;30.280;2022-07-25T04:03:50;100875.81;;;25.35;51.35
41513;BME280;27244;59.940;30.280;2022-07-25T04:06:17;100875.00;;;25.35;51.38
41513;BME280;27244;59.940;30.280;2022-07-25T04:08:44;100876.69;;;25.32;51.52
41513;BME280;27244;59.940;30.280;2022-07-25T04:11:11;100881.44;;;25.35;51.62
41513;BME280;27244;59.940;30.280;2022-07-25T04:13:39;100883.00;;;25.36;51.55
41513;BME280;27244;59.940;30.280;2022-07-25T04:16:07;100880.66;;;25.35;51.45
41513;BME280;27244;59.940;30.280;2022-07-25T04:18:34;100882.69;;;25.34;51.36
41513;BME280;27244;59.940;30.280;2022-07-25T04:21:01;100878.63;;;25.35;51.26
41513;BME280;27244;59.940;30.280;2022-07-25T04:23:28;100880.66;;;25.35;51.44
41513;BME280;27244;59.940;30.280;2022-07-25T04:25:56;100882.22;;;25.36;51.43
41513;BME280;27244;59.940;30.280;2022-07-25T04:28:24;100880.66;;;25.35;51.50
41513;BME280;27244;59.940;30.280;2022-07-25T04:30:53;100885.03;;;25.36;51.77
41513;BME280;27244;59.940;30.280;2022-07-25T04:33:20;100885.50;;;25.34;51.65
41513;BME280;27244;59.940;30.280;2022-07-25T04:35:47;100882.69;;;25.34;51.60
41513;BME280;27244;59.940;30.280;2022-07-25T04:38:14;100879.84;;;25.34;51.49
41513;BME280;27244;59.940;30.280;2022-07-25T04:40:41;100880.66;;;25.35;51.46
41513;BME280;27244;59.940;30.280;2022-07-25T04:43:09;100877.84;;;25.35;51.65
41513;BME280;27244;59.940;30.280;2022-07-25T04:45:36;100880.66;;;25.35;51.46
41513;BME280;27244;59.940;30.280;2022-07-25T04:48:05;100874.66;;;25.33;51.67
41513;BME280;27244;59.940;30.280;2022-07-25T04:50:32;100863.72;;;25.35;51.59
41513;BME280;27244;59.940;30.280;2022-07-25T04:52:59;100864.50;;;25.35;51.75
41513;BME280;27244;59.940;30.280;2022-07-25T04:55:26;100862.91;;;25.34;51.45
41513;BME280;27244;59.940;30.280;2022-07-25T04:57:53;100867.78;;;25.34;51.58
41513;BME280;27244;59.940;30.280;2022-07-25T05:00:20;100865.75;;;25.34;51.82
41513;BME280;27244;59.940;30.280;2022-07-25T05:02:48;100862.91;;;25.34;51.89
41513;BME280;27244;59.940;30.280;2022-07-25T05:05:17;100863.72;;;25.35;51.73
41513;BME280;27244;59.940;30.280;2022-07-25T05:07:45;100866.53;;;25.35;51.60
41513;BME280;27244;59.940;30.280;2022-07-25T05:10:12;100863.72;;;25.35;51.55
41513;BME280;27244;59.940;30.280;2022-07-25T05:12:39;100862.13;;;25.34;51.62
41513;BME280;27244;59.940;30.280;2022-07-25T05:15:07;100862.13;;;25.34;52.03
41513;BME280;27244;59.940;30.280;2022-07-25T05:17:34;100868.56;;;25.34;51.80
41513;BME280;27244;59.940;30.280;2022-07-25T05:20:01;100871.81;;;25.33;52.08
41513;BME280;27244;59.940;30.280;2022-07-25T05:22:29;100869.34;;;25.35;52.02
41513;BME280;27244;59.940;30.280;2022-07-25T05:24:56;100862.13;;;25.34;52.02
41513;BME280;27244;59.940;30.280;2022-07-25T05:27:23;100864.16;;;25.33;51.83
41513;BME280;27244;59.940;30.280;2022-07-25T05:29:50;100870.59;;;25.34;52.21
41513;BME280;27244;59.940;30.280;2022-07-25T05:32:17;100867.78;;;25.34;51.96
41513;BME280;27244;59.940;30.280;2022-07-25T05:34:44;100866.19;;;25.33;52.28
41513;BME280;27244;59.940;30.280;2022-07-25T05:37:11;100872.63;;;25.33;52.24
41513;BME280;27244;59.940;30.280;2022-07-25T05:39:40;100872.19;;;25.35;52.54
41513;BME280;27244;59.940;30.280;2022-07-25T05:42:07;100869.47;;;25.31;52.05
41513;BME280;27244;59.940;30.280;2022-07-25T05:44:34;100866.53;;;25.35;52.50
41513;BME280;27244;59.940;30.280;2022-07-25T05:47:01;100864.94;;;25.34;52.27
41513;BME280;27244;59.940;30.280;2022-07-25T05:49:28;100866.66;;;25.31;52.77
41513;BME280;27244;59.940;30.280;2022-07-25T05:51:55;100876.25;;;25.34;52.68
41513;BME280;27244;59.940;30.280;2022-07-25T05:54:22;100875.44;;;25.33;52.42
41513;BME280;27244;59.940;30.280;2022-07-25T05:56:50;100881.44;;;25.35;52.31
41513;BME280;27244;59.940;30.280;2022-07-25T05:59:17;100867.78;;;25.34;52.47
41513;BME280;27244;59.940;30.280;2022-07-25T06:01:45;100875.00;;;25.35;52.61
41513;BME280;27244;59.940;30.280;2022-07-25T06:04:12;100869.34;;;25.35;52.27
41513;BME280;27244;59.940;30.280;2022-07-25T06:06:39;100877.84;;;25.35;52.55
41513;BME280;27244;59.940;30.280;2022-07-25T06:09:06;100879.84;;;25.34;52.63
41513;BME280;27244;59.940;30.280;2022-07-25T06:11:33;100880.31;;;25.33;52.63
41513;BME280;27244;59.940;30.280;2022-07-25T06:14:01;100883.47;;;25.35;52.51
41513;BME280;27244;59.940;30.280;2022-07-25T06:16:28;100886.75;;;25.33;52.37
41513;BME280;27244;59.940;30.280;2022-07-25T06:18:55;100875.56;;;25.30;52.35
41513;BME280;27244;59.940;30.280;2022-07-25T06:21:22;100879.84;;;25.34;52.60
41513;BME280;27244;59.940;30.280;2022-07-25T06:23:49;100875.91;;;25.32;52.94
41513;BME280;27244;59.940;30.280;2022-07-25T06:26:16;100879.06;;;25.34;53.12
41513;BME280;27244;59.940;30.280;2022-07-25T06:28:43;100883.91;;;25.33;52.55
41513;BME280;27244;59.940;30.280;2022-07-25T06:31:12;100884.72;;;25.34;52.64
41513;BME280;27244;59.940;30.280;2022-07-25T06:33:39;100891.94;;;25.35;52.87
41513;BME280;27244;59.940;30.280;2022-07-25T06:36:06;100886.75;;;25.33;52.84
41513;BME280;27244;59.940;30.280;2022-07-25T06:38:33;100887.09;;;25.35;52.41
41513;BME280;27244;59.940;30.280;2022-07-25T06:41:01;100895.22;;;25.33;53.08
41513;BME280;27244;59.940;30.280;2022-07-25T06:43:28;100875.13;;;25.31;53.17
41513;BME280;27244;59.940;30.280;2022-07-25T06:45:55;100891.16;;;25.34;52.88
41513;BME280;27244;59.940;30.280;2022-07-25T06:48:24;100894.31;;;25.36;53.36
41513;BME280;27244;59.940;30.280;2022-07-25T06:50:51;100896.69;;;25.38;53.57
41513;BME280;27244;59.940;30.280;2022-07-25T06:53:18;100894.19;;;25.40;53.41
41513;BME280;27244;59.940;30.280;2022-07-25T06:55:45;100897.47;;;25.38;53.32
41513;BME280;27244;59.940;30.280;2022-07-25T06:58:12;100901.44;;;25.41;52.77
41513;BME280;27244;59.940;30.280;2022-07-25T07:00:39;100897.38;;;25.42;53.13
41513;BME280;27244;59.940;30.280;2022-07-25T07:03:06;100899.84;;;25.40;53.43
41513;BME280;27244;59.940;30.280;2022-07-25T07:05:35;100887.53;;;25.34;53.26
41513;BME280;27244;59.940;30.280;2022-07-25T07:08:03;100901.44;;;25.41;53.41
41513;BME280;27244;59.940;30.280;2022-07-25T07:10:30;100897.38;;;25.42;53.22
41513;BME280;27244;59.940;30.280;2022-07-25T07:13:04;100906.84;;;25.48;52.86
41513;BME280;27244;59.940;30.280;2022-07-25T07:15:31;100896.56;;;25.41;53.13
41513;BME280;27244;59.940;30.280;2022-07-25T07:17:58;100896.56;;;25.41;53.35
41513;BME280;27244;59.940;30.280;2022-07-25T07:20:25;100897.38;;;25.42;53.27
41513;BME280;27244;59.940;30.280;2022-07-25T07:22:54;100904.59;;;25.43;53.49
41513;BME280;27244;59.940;30.280;2022-07-25T07:25:21;100901.78;;;25.43;53.41
41513;BME280;27244;59.940;30.280;2022-07-25T07:27:49;100901.31;;;25.44;53.53
41513;BME280;27244;59.940;30.280;2022-07-25T07:30:17;100904.94;;;25.45;53.80
41513;BME280;27244;59.940;30.280;2022-07-25T07:32:45;100904.94;;;25.45;52.89
41513;BME280;27244;59.940;30.280;2022-07-25T07:35:12;100905.72;;;25.45;53.29
41513;BME280;27244;59.940;30.280;2022-07-25T07:37:41;100903.69;;;25.46;53.47
41513;BME280;27244;59.940;30.280;2022-07-25T07:40:11;100906.84;;;25.48;53.24
41513;BME280;27244;59.940;30.280;2022-07-25T07:42:40;100907.75;;;25.45;53.45
41513;BME280;27244;59.940;30.280;2022-07-25T07:45:12;100904.50;;;25.46;53.28
41513;BME280;27244;59.940;30.280;2022-07-25T07:47:40;100908.31;;;25.40;54.28
41513;BME280;27244;59.940;30.280;2022-07-25T07:50:08;100911.81;;;25.44;54.03
41513;BME280;27244;59.940;30.280;2022-07-25T07:52:35;100913.53;;;25.41;53.98
41513;BME280;27244;59.940;30.280;2022-07-25T07:55:03;100917.94;;;25.42;53.61
41513;BME280;27244;59.940;30.280;2022-07-25T07:57:49;100924.69;;;25.45;54.09
41513;BME280;27244;59.940;30.280;2022-07-25T08:00:17;100918.72;;;25.43;54.18
41513;BME280;27244;59.940;30.280;2022-07-25T08:02:45;100924.38;;;25.43;53.39
41513;BME280;27244;59.940;30.280;2022-07-25T08:05:19;100923.47;;;25.46;53.94
41513;BME280;27244;59.940;30.280;2022-07-25T08:07:46;100919.16;;;25.41;53.75
41513;BME280;27244;59.940;30.280;2022-07-25T08:10:13;100921.19;;;25.41;53.75
41513;BME280;27244;59.940;30.280;2022-07-25T08:12:40;100923.69;;;25.39;53.93
41513;BME280;27244;59.940;30.280;2022-07-25T08:15:10;100921.88;;;25.45;53.83
41513;BME280;27244;59.940;30.280;2022-07-25T08:17:36;100930.03;;;25.43;53.48
41513;BME280;27244;59.940;30.280;2022-07-25T08:20:05;100932.38;;;25.44;54.30
41513;BME280;27244;59.940;30.280;2022-07-25T08:22:37;100929.00;;;25.50;53.60
41513;BME280;27244;59.940;30.280;2022-07-25T08:25:06;100920.63;;;25.46;54.18
41513;BME280;27244;59.940;30.280;2022-07-25T08:27:33;100926.28;;;25.46;54.09
41513;BME280;27244;59.940;30.280;2022-07-25T08:30:01;100936.69;;;25.49;53.70
41513;BME280;27244;59.940;30.280;2022-07-25T08:32:29;100936.59;;;25.53;53.87
41513;BME280;27244;59.940;30.280;2022-07-25T08:34:56;100933.31;;;25.54;53.53
41513;BME280;27244;59.940;30.280;2022-07-25T08:37:23;100937.38;;;25.53;54.78
41513;BME280;27244;59.940;30.280;2022-07-25T08:39:51;100939.75;;;25.55;53.93
41513;BME280;27244;59.940;30.280;2022-07-25T08:42:18;100938.50;;;25.56;54.13
41513;BME280;27244;59.940;30.280;2022-07-25T08:44:51;100945.97;;;25.62;53.92
41513;BME280;27244;59.940;30.280;2022-07-25T08:47:21;100948.09;;;25.58;53.89
41513;BME280;27244;59.940;30.280;2022-07-25T08:49:50;100954.09;;;25.60;53.67
41513;BME280;27244;59.940;30.280;2022-07-25T08:52:18;100954.09;;;25.60;53.43
41513;BME280;27244;59.940;30.280;2022-07-25T08:54:45;100950.94;;;25.58;53.78
41513;BME280;27244;59.940;30.280;2022-07-25T08:57:13;100954.09;;;25.60;53.74
41513;BME280;27244;59.940;30.280;2022-07-25T08:59:40;100960.56;;;25.61;53.62
41513;BME280;27244;59.940;30.280;2022-07-25T09:02:07;100964.13;;;25.61;53.89
41513;BME280;27244;59.940;30.280;2022-07-25T09:04:35;100967.88;;;25.58;54.94
41513;BME280;27244;59.940;30.280;2022-07-25T09:07:04;100959.28;;;25.62;53.87
41513;BME280;27244;59.940;30.280;2022-07-25T09:09:34;100952.53;;;25.59;54.04
41513;BME280;27244;59.940;30.280;2022-07-25T09:12:01;100961.00;;;25.59;53.76
41513;BME280;27244;59.940;30.280;2022-07-25T09:14:28;100966.19;;;25.61;53.94
41513;BME280;27244;59.940;30.280;2022-07-25T09:16:56;100964.94;;;25.62;53.60
41513;BME280;27244;59.940;30.280;2022-07-25T09:19:24;100970.59;;;25.62;54.51
41513;BME280;27244;59.940;30.280;2022-07-25T09:21:59;100962.69;;;25.69;53.59
41513;BME280;27244;59.940;30.280;2022-07-25T09:24:29;100973.28;;;25.65;53.91
41513;BME280;27244;59.940;30.280;2022-07-25T09:26:59;100965.06;;;25.58;53.84
41513;BME280;27244;59.940;30.280;2022-07-25T09:29:29;100969.78;;;25.61;54.01
41513;BME280;27244;59.940;30.280;2022-07-25T09:31:58;100969.78;;;25.61;53.63
41513;BME280;27244;59.940;30.280;2022-07-25T09:34:30;100974.88;;;25.66;53.57
41513;BME280;27244;59.940;30.280;2022-07-25T09:36:59;100967.75;;;25.62;54.09
41513;BME280;27244;59.940;30.280;2022-07-25T09:39:39;100961.75;;;25.72;54.06
41513;BME280;27244;59.940;30.280;2022-07-25T09:42:17;100966.28;;;25.70;53.76
41513;BME280;27244;59.940;30.280;2022-07-25T09:45:00;100964.59;;;25.72;53.55
41513;BME280;27244;59.940;30.280;2022-07-25T09:47:28;100970.16;;;25.63;53.79
41513;BME280;27244;59.940;30.280;2022-07-25T09:49:56;100964.13;;;25.61;54.81
41513;BME280;27244;59.940;30.280;2022-07-25T09:52:23;100975.00;;;25.63;53.79
41513;BME280;27244;59.940;30.280;2022-07-25T09:54:52;100978.19;;;25.65;53.86
41513;BME280;27244;59.940;30.280;2022-07-25T09:57:20;100980.31;;;25.61;53.77
41513;BME280;27244;59.940;30.280;2022-07-25T09:59:48;100973.53;;;25.58;54.03
41513;BME280;27244;59.940;30.280;2022-07-25T10:02:24;100970.81;;;25.67;53.96
41513;BME280;27244;59.940;30.280;2022-07-25T10:05:02;100969.72;;;25.65;53.47
41513;BME280;27244;59.940;30.280;2022-07-25T10:07:36;100978.94;;;25.65;53.96
41513;BME280;27244;59.940;30.280;2022-07-25T10:10:06;100973.78;;;25.64;53.79
41513;BME280;27244;59.940;30.280;2022-07-25T10:12:33;100975.78;;;25.63;53.34
41513;BME280;27244;59.940;30.280;2022-07-25T10:15:08;100981.34;;;25.67;53.54
41513;BME280;27244;59.940;30.280;2022-07-25T10:17:36;100980.66;;;25.63;53.42
41513;BME280;27244;59.940;30.280;2022-07-25T10:20:06;100987.91;;;25.64;53.14
41513;BME280;27244;59.940;30.280;2022-07-25T10:22:40;100990.59;;;25.67;53.33
41513;BME280;27244;59.940;30.280;2022-07-25T10:25:12;100990.59;;;25.67;52.98
41513;BME280;27244;59.940;30.280;2022-07-25T10:27:44;100992.63;;;25.67;53.07
41513;BME280;27244;59.940;30.280;2022-07-25T10:30:19;100996.25;;;25.67;52.93
41513;BME280;27244;59.940;30.280;2022-07-25T10:32:55;100990.59;;;25.67;53.08
41513;BME280;27244;59.940;30.280;2022-07-25T10:35:24;100991.97;;;25.63;53.01
41513;BME280;27244;59.940;30.280;2022-07-25T10:37:52;101006.09;;;25.63;53.32
41513;BME280;27244;59.940;30.280;2022-07-25T10:40:33;101001.31;;;25.72;52.82
41513;BME280;27244;59.940;30.280;2022-07-25T10:43:06;100997.16;;;25.64;52.70
41513;BME280;27244;59.940;30.280;2022-07-25T10:45:39;101005.63;;;25.64;53.28
41513;BME280;27244;59.940;30.280;2022-07-25T10:48:10;100998.94;;;25.58;53.39
41513;BME280;27244;59.940;30.280;2022-07-25T10:50:48;101004.72;;;25.67;53.38
41513;BME280;27244;59.940;30.280;2022-07-25T10:53:36;101000.78;;;25.65;52.86
41513;BME280;27244;59.940;30.280;2022-07-25T10:56:14;100995.56;;;25.63;53.40
41513;BME280;27244;59.940;30.280;2022-07-25T10:58:46;101005.75;;;25.61;52.90
41513;BME280;27244;59.940;30.280;2022-07-25T11:01:18;101002.13;;;25.60;53.34
41513;BME280;27244;59.940;30.280;2022-07-25T11:03:45;100999.84;;;25.55;53.14
41513;BME280;27244;59.940;30.280;2022-07-25T11:06:13;100996.25;;;25.55;52.68
41513;BME280;27244;59.940;30.280;2022-07-25T11:08:42;101003.91;;;25.54;52.93
41513;BME280;27244;59.940;30.280;2022-07-25T11:11:11;100993.09;;;25.53;53.02
41513;BME280;27244;59.940;30.280;2022-07-25T11:13:39;100997.94;;;25.52;52.85
41513;BME280;27244;59.940;30.280;2022-07-25T11:16:08;101003.59;;;25.52;52.18
41513;BME280;27244;59.940;30.280;2022-07-25T11:18:36;101004.47;;;25.49;52.27
41513;BME280;27244;59.940;30.280;2022-07-25T11:21:05;100994.75;;;25.50;52.54
41513;BME280;27244;59.940;30.280;2022-07-25T11:23:32;101002.00;;;25.51;52.49
41513;BME280;27244;59.940;30.280;2022-07-25T11:26:07;101005.06;;;25.57;52.42
41513;BME280;27244;59.940;30.280;2022-07-25T11:28:41;101004.59;;;25.58;52.35
41513;BME280;27244;59.940;30.280;2022-07-25T11:31:09;101002.69;;;25.55;52.23
41513;BME280;27244;59.940;30.280;2022-07-25T11:33:37;100997.81;;;25.56;52.00
41513;BME280;27244;59.940;30.280;2022-07-25T11:36:05;101009.00;;;25.59;52.25
41513;BME280;27244;59.940;30.280;2022-07-25T11:38:33;101007.09;;;25.56;52.23
41513;BME280;27244;59.940;30.280;2022-07-25T11:41:00;101012.75;;;25.56;52.24
41513;BME280;27244;59.940;30.280;2022-07-25T11:43:27;101022.03;;;25.57;51.85
41513;BME280;27244;59.940;30.280;2022-07-25T11:45:58;101018.72;;;25.58;52.06
41513;BME280;27244;59.940;30.280;2022-07-25T11:48:30;101023.47;;;25.61;52.13
41513;BME280;27244;59.940;30.280;2022-07-25T11:50:58;101013.97;;;25.55;52.33
41513;BME280;27244;59.940;30.280;2022-07-25T11:53:39;101005.88;;;25.57;51.98
41513;BME280;27244;59.940;30.280;2022-07-25T11:56:14;101007.09;;;25.56;51.90
41513;BME280;27244;59.940;30.280;2022-07-25T11:58:42;101009.25;;;25.52;51.91
41513;BME280;27244;59.940;30.280;2022-07-25T12:01:14;101004.97;;;25.60;52.08
41513;BME280;27244;59.940;30.280;2022-07-25T12:03:41;100998.72;;;25.53;51.90
41513;BME280;27244;59.940;30.280;2022-07-25T12:06:11;100999.53;;;25.53;51.90
41513;BME280;27244;59.940;30.280;2022-07-25T12:08:39;101001.56;;;25.53;51.97
41513;BME280;27244;59.940;30.280;2022-07-25T12:11:18;101011.28;;;25.64;51.97
41513;BME280;27244;59.940;30.280;2022-07-25T12:13:46;101015.22;;;25.54;51.71
41513;BME280;27244;59.940;30.280;2022-07-25T12:16:15;101014.78;;;25.56;51.54
41513;BME280;27244;59.940;30.280;2022-07-25T12:18:42;101009.25;;;25.52;51.71
41513;BME280;27244;59.940;30.280;2022-07-25T12:21:09;101010.84;;;25.53;51.84
41513;BME280;27244;59.940;30.280;2022-07-25T12:23:36;101009.25;;;25.52;51.71
41513;BME280;27244;59.940;30.280;2022-07-25T12:26:07;101004.38;;;25.53;51.60
41513;BME280;27244;59.940;30.280;2022-07-25T12:28:35;101000.31;;;25.54;51.69
41513;BME280;27244;59.940;30.280;2022-07-25T12:31:02;101008.00;;;25.53;51.45
41513;BME280;27244;59.940;30.280;2022-07-25T12:33:31;101001.09;;;25.54;51.75
41513;BME280;27244;59.940;30.280;2022-07-25T12:35:59;100999.19;;;25.51;51.43
41513;BME280;27244;59.940;30.280;2022-07-25T12:38:26;101000.31;;;25.54;51.69
41513;BME280;27244;59.940;30.280;2022-07-25T12:40:53;101005.19;;;25.53;51.50
41513;BME280;27244;59.940;30.280;2022-07-25T12:43:20;101011.63;;;25.54;51.26
41513;BME280;27244;59.940;30.280;2022-07-25T12:45:48;101012.38;;;25.54;51.39